Hlavní strana
METAR-TAF:

METAR-TAF

Letiště :

Lutselk'e, Severozápadní teritoria, Kanada

zeměpisná šířka: 62-25N, zeměpisná délka: 110-40W, výška: 179 m

Aktuální stav počasí

Zpráva byla vytvořena před 27 minutami, v 14:00 UTC
Východoseverovýchodní vítr 9 kt
Teplota -9°C
Vlhkost vzduchu 79%
Tlak 1020 hPa
Viditelnost: 32.2 km
Oblačno až skoro zataženo ve výšce 700 ft

METAR: CYLK 211400Z 06009KT 20SM BKN007 M09/M12 A3013 RMK SC7 0/9/SNW CVR/HARD PACK SLP220

Čas: 08:27 (14:27 UTC)

Předpověď počasí

Zpráva byla vytvořena před 21 hodinami a 49 minutami, v 16:38 UTC
Předpověď platná od 20 v 17 UTC do 20 v 20 UTC
Severovýchodní vítr 10 kt
Viditelnost: 10 km
Skoro jasno ve výšce 800 ft
Zataženo ve výšce 2000 ft
Dočasný
od 20 v 17 UTC do 20 v 20 UTC
Viditelnost: 10 km
Zataženo ve výšce 2500 ft
slabé sněžení

TAF: CYLK 201638Z 2017/2020 05010KT P6SM FEW008 OVC020 TEMPO 2017/2020 P6SM -SN OVC025 RMK NXT FCST WILL BE ISSUED AT 211545Z

Stav a předpovědi počasí z více než 4 000 letišť (zprávy METAR a TAF).

Červené a žluté tečky na mapě představují dostupné meteorologické stanice.

Když kurzor umístíte na tečku, zobrazí se název stanice.

Pak kliknutím zobrazíte stav a předpověď počasí.

Chcete-li změnit mapu, kliknutím na zelené tlačítko se znaménkem +mapu přiblížíte, kliknutím na zelené tlačítko se znaménkem – mapu oddálíte a kliknutím na zelené šipky přejdete na sousední mapy.


METAR-TAF: